Time;durP1;ratioP1;P1;durP2;ratioP2;P2;SDS_P1;SDS_P2;PMS_P1;PMS_P2;Temp;Humidity;BMP_temperature;BMP_pressure;BME280_temperature;BME280_humidity;BME280_pressure;Samples;Min_cycle;Max_cycle;Signal;HPM_P1;HPM_P2
2023/03/06 00:00:23;;;;;;;13.32;5.45;;;1.10;99.90;;;;;;4978148;28;20534;-76
2023/03/06 00:02:49;;;;;;;10.35;5.00;;;1.10;99.90;;;;;;4987320;28;20037;-76
2023/03/06 00:05:15;;;;;;;10.00;5.32;;;1.10;99.90;;;;;;4968018;28;20034;-76
2023/03/06 00:07:41;;;;;;;13.20;6.18;;;1.10;99.90;;;;;;4971149;28;20046;-76
2023/03/06 00:10:11;;;;;;;12.45;5.57;;;1.10;99.90;;;;;;4978296;28;20026;-76
2023/03/06 00:12:37;;;;;;;13.85;6.03;;;1.00;99.90;;;;;;4979636;28;20398;-77
2023/03/06 00:15:04;;;;;;;12.00;6.05;;;1.00;99.90;;;;;;4984952;28;20034;-78
2023/03/06 00:17:29;;;;;;;12.20;5.70;;;1.00;99.90;;;;;;4955062;28;20034;-76
2023/03/06 00:19:56;;;;;;;11.85;5.10;;;1.00;99.90;;;;;;4975239;28;20035;-75
2023/03/06 00:22:21;;;;;;;13.05;6.00;;;1.00;99.90;;;;;;4957628;28;20026;-78
2023/03/06 00:24:47;;;;;;;17.63;6.55;;;1.00;99.90;;;;;;4975883;28;20487;-77
2023/03/06 00:27:13;;;;;;;11.32;6.00;;;1.00;99.90;;;;;;4950329;28;20117;-77
2023/03/06 00:29:39;;;;;;;13.93;5.57;;;1.00;99.90;;;;;;4957924;28;20159;-76
2023/03/06 00:32:05;;;;;;;11.05;5.95;;;1.00;99.90;;;;;;4943872;29;20034;-77
2023/03/06 00:34:32;;;;;;;10.18;5.53;;;1.00;99.90;;;;;;4944369;28;20407;-78
2023/03/06 00:36:58;;;;;;;9.90;5.28;;;1.10;99.90;;;;;;4956955;28;20039;-78
2023/03/06 00:39:24;;;;;;;13.70;5.72;;;1.00;99.90;;;;;;4950999;28;20037;-77
2023/03/06 00:41:52;;;;;;;11.90;5.55;;;1.00;99.90;;;;;;4964053;28;20031;-77
2023/03/06 00:44:18;;;;;;;11.88;5.30;;;1.00;99.90;;;;;;4978809;28;20043;-77
2023/03/06 00:46:44;;;;;;;10.80;5.15;;;1.00;99.90;;;;;;4944083;28;20058;-78
2023/03/06 00:49:09;;;;;;;8.18;4.60;;;1.00;99.90;;;;;;4965203;28;20158;-77
2023/03/06 00:51:35;;;;;;;11.10;5.00;;;0.90;99.90;;;;;;4954826;28;20026;-77
2023/03/06 00:54:01;;;;;;;10.70;4.70;;;0.90;99.90;;;;;;4947917;28;20042;-77
2023/03/06 00:56:27;;;;;;;11.27;5.25;;;0.90;99.90;;;;;;4952701;28;20045;-78
2023/03/06 00:58:53;;;;;;;10.57;5.63;;;0.90;99.90;;;;;;4984775;28;20439;-78
2023/03/06 01:01:18;;;;;;;11.65;5.10;;;0.90;99.90;;;;;;4964186;28;20042;-77
2023/03/06 01:03:44;;;;;;;15.18;6.72;;;0.90;99.90;;;;;;4969464;28;20137;-77
2023/03/06 01:06:10;;;;;;;9.15;4.95;;;1.00;99.90;;;;;;4963487;28;20110;-78
2023/03/06 01:08:36;;;;;;;10.43;4.97;;;1.00;99.90;;;;;;4965203;28;20039;-77
2023/03/06 01:11:01;;;;;;;9.93;4.82;;;1.00;99.90;;;;;;4961253;28;20506;-78
2023/03/06 01:13:27;;;;;;;11.48;4.65;;;0.90;99.90;;;;;;4947297;28;20130;-77
2023/03/06 01:15:53;;;;;;;11.45;4.93;;;1.00;99.90;;;;;;4966328;28;20402;-78
2023/03/06 01:18:20;;;;;;;11.02;4.70;;;1.10;99.90;;;;;;4957806;28;20399;-77
2023/03/06 01:20:46;;;;;;;9.55;4.85;;;1.00;99.90;;;;;;4955896;28;20030;-77
2023/03/06 01:23:11;;;;;;;10.10;4.38;;;1.10;99.90;;;;;;4947675;28;20125;-77
2023/03/06 01:25:37;;;;;;;11.45;4.65;;;1.00;99.90;;;;;;4961784;28;20030;-78
2023/03/06 01:28:03;;;;;;;10.25;4.93;;;1.00;99.90;;;;;;4980580;28;20069;-77
2023/03/06 01:30:29;;;;;;;12.75;4.38;;;1.00;99.90;;;;;;4942620;28;20035;-77
2023/03/06 01:32:54;;;;;;;8.70;4.60;;;0.90;99.90;;;;;;4983466;28;20446;-78
2023/03/06 01:35:20;;;;;;;10.43;5.00;;;0.90;99.90;;;;;;4962260;28;20074;-77
2023/03/06 01:37:46;;;;;;;9.77;4.60;;;0.90;99.90;;;;;;4964081;28;20125;-77
2023/03/06 01:40:12;;;;;;;12.65;4.45;;;1.00;99.90;;;;;;4958291;28;20062;-77
2023/03/06 01:42:38;;;;;;;7.70;3.92;;;1.00;99.90;;;;;;4959236;28;20046;-77
2023/03/06 01:45:08;;;;;;;11.35;4.80;;;1.00;99.90;;;;;;4964516;28;20026;-78
2023/03/06 01:47:34;;;;;;;14.05;5.18;;;1.00;99.90;;;;;;4959156;28;20053;-77
2023/03/06 01:50:02;;;;;;;8.82;4.20;;;0.90;99.90;;;;;;4941825;28;20637;-77
2023/03/06 01:52:33;;;;;;;9.23;4.22;;;0.90;99.90;;;;;;4967599;28;20061;-77
2023/03/06 01:55:19;;;;;;;11.63;4.95;;;0.90;99.90;;;;;;4946134;28;20030;-77
2023/03/06 01:57:56;;;;;;;8.85;4.70;;;0.90;99.90;;;;;;4940137;28;20035;-77
2023/03/06 02:00:25;;;;;;;11.85;5.07;;;0.90;99.90;;;;;;4973745;28;20038;-77
2023/03/06 02:03:02;;;;;;;10.43;4.63;;;0.90;99.90;;;;;;4958153;28;20027;-77
2023/03/06 02:05:28;;;;;;;8.02;4.05;;;0.90;99.90;;;;;;4964450;28;20031;-77
2023/03/06 02:07:55;;;;;;;12.38;4.88;;;0.90;99.90;;;;;;4946044;28;20061;-77
2023/03/06 02:10:21;;;;;;;13.23;4.97;;;1.00;99.90;;;;;;4967230;28;20566;-77
2023/03/06 02:12:49;;;;;;;10.75;4.82;;;1.00;99.90;;;;;;4945493;28;20129;-77
2023/03/06 02:15:18;;;;;;;11.85;4.50;;;1.10;99.90;;;;;;4965650;28;20082;-77
2023/03/06 02:17:45;;;;;;;11.77;4.70;;;1.00;99.90;;;;;;4961810;28;20043;-77
2023/03/06 02:20:34;;;;;;;9.48;4.43;;;1.10;99.90;;;;;;4962960;28;20035;-76
2023/03/06 02:23:25;;;;;;;9.52;4.90;;;1.10;99.90;;;;;;4987599;28;20053;-77
2023/03/06 02:25:51;;;;;;;10.68;4.95;;;1.00;99.90;;;;;;4970432;28;20026;-78
2023/03/06 02:28:20;;;;;;;12.55;5.18;;;1.00;99.90;;;;;;4965372;28;20483;-78
2023/03/06 02:30:48;;;;;;;11.23;5.78;;;0.90;99.90;;;;;;4958565;28;20629;-77
2023/03/06 02:33:17;;;;;;;9.80;4.72;;;0.90;99.90;;;;;;4954909;28;20027;-79
2023/03/06 02:35:52;;;;;;;11.68;6.35;;;0.90;99.90;;;;;;4974701;28;20042;-78
2023/03/06 02:38:20;;;;;;;;;;;0.90;99.90;;;;;;4976527;28;20035;-79
2023/03/06 02:40:48;;;;;;;10.38;4.03;;;0.90;99.90;;;;;;4971685;28;19956;-78
2023/03/06 02:43:17;;;;;;;9.32;4.72;;;0.80;99.90;;;;;;4966836;28;20030;-79
2023/03/06 02:45:48;;;;;;;10.40;5.00;;;0.80;99.90;;;;;;4953987;28;20023;-79
2023/03/06 02:48:16;;;;;;;8.77;4.40;;;0.80;99.90;;;;;;4984979;28;20085;-79
2023/03/06 02:50:43;;;;;;;9.05;4.53;;;0.80;99.90;;;;;;4973843;28;20394;-79
2023/03/06 02:53:10;;;;;;;9.35;4.43;;;0.80;99.90;;;;;;4967728;28;20042;-78
2023/03/06 02:55:36;;;;;;;10.27;4.18;;;0.80;99.90;;;;;;4972570;28;20526;-78
2023/03/06 02:58:03;;;;;;;9.43;4.75;;;0.80;99.90;;;;;;4948627;28;20057;-78
2023/03/06 03:00:30;;;;;;;9.98;4.45;;;0.80;99.90;;;;;;4970646;28;20043;-78
2023/03/06 03:02:56;;;;;;;14.63;5.07;;;0.80;99.90;;;;;;4951608;28;20406;-78
2023/03/06 03:05:22;;;;;;;8.63;4.68;;;0.80;99.90;;;;;;4966159;28;20066;-78
2023/03/06 03:07:55;;;;;;;11.10;4.55;;;0.80;99.90;;;;;;4947298;28;20031;-78
2023/03/06 03:10:22;;;;;;;13.18;4.75;;;0.90;99.90;;;;;;4967602;28;20106;-78
2023/03/06 03:12:49;;;;;;;8.07;4.43;;;0.90;99.90;;;;;;4973894;28;20030;-78
2023/03/06 03:15:15;;;;;;;9.93;4.95;;;0.90;99.90;;;;;;4969147;28;20550;-79
2023/03/06 03:17:41;;;;;;;10.70;5.55;;;0.80;99.90;;;;;;4971627;28;20041;-78
2023/03/06 03:20:11;;;;;;;8.68;4.20;;;0.80;99.90;;;;;;4967107;28;20042;-78
2023/03/06 03:22:38;;;;;;;10.32;4.43;;;0.80;99.90;;;;;;4965652;28;20052;-78
2023/03/06 03:25:05;;;;;;;12.07;4.95;;;0.80;99.90;;;;;;4964989;28;20035;-79
2023/03/06 03:27:31;;;;;;;9.85;4.68;;;0.80;99.90;;;;;;4984679;28;20030;-77
2023/03/06 03:29:57;;;;;;;10.05;4.57;;;0.80;99.90;;;;;;4971133;28;20041;-78
2023/03/06 03:32:24;;;;;;;14.15;5.60;;;0.80;99.90;;;;;;4954622;28;20495;-78
2023/03/06 03:34:50;;;;;;;8.88;4.82;;;0.80;99.90;;;;;;4961722;28;20056;-78
2023/03/06 03:37:17;;;;;;;13.65;5.25;;;0.80;99.90;;;;;;4968694;28;20752;-78
2023/03/06 03:39:43;;;;;;;9.88;4.47;;;0.80;99.90;;;;;;4967404;28;20027;-78
2023/03/06 03:42:09;;;;;;;11.73;4.50;;;0.80;99.90;;;;;;4971034;28;20042;-78
2023/03/06 03:44:35;;;;;;;13.70;5.38;;;0.80;99.90;;;;;;4972655;28;20058;-78
2023/03/06 03:47:01;;;;;;;10.40;4.55;;;0.80;99.90;;;;;;4939456;28;20031;-78
2023/03/06 03:49:27;;;;;;;8.32;4.88;;;0.80;99.90;;;;;;4951479;28;20041;-78
2023/03/06 03:51:53;;;;;;;10.20;4.43;;;0.70;99.90;;;;;;4958470;28;20030;-78
2023/03/06 03:54:21;;;;;;;10.38;5.00;;;0.80;99.90;;;;;;4967921;28;20061;-78
2023/03/06 03:56:48;;;;;;;10.32;5.43;;;0.80;99.90;;;;;;4958126;28;20038;-78
2023/03/06 03:59:20;;;;;;;10.07;5.10;;;0.80;99.90;;;;;;4960204;28;20926;-78
2023/03/06 04:02:03;;;;;;;17.05;5.57;;;0.80;99.90;;;;;;4969987;28;20087;-79
2023/03/06 04:04:31;;;;;;;8.88;4.50;;;0.80;99.90;;;;;;4964850;28;20043;-77
2023/03/06 04:06:57;;;;;;;13.70;5.70;;;0.80;99.90;;;;;;4970055;28;20030;-78
2023/03/06 04:09:23;;;;;;;12.48;5.85;;;0.70;99.90;;;;;;4972885;28;20411;-78
2023/03/06 04:11:49;;;;;;;8.88;4.65;;;0.80;99.90;;;;;;4972552;28;20032;-78
2023/03/06 04:14:15;;;;;;;10.70;5.53;;;0.70;99.90;;;;;;4968032;28;20099;-78
2023/03/06 04:16:41;;;;;;;15.75;5.85;;;0.70;99.90;;;;;;4950906;28;20470;-77
2023/03/06 04:19:07;;;;;;;9.18;4.78;;;0.70;99.90;;;;;;4947070;28;20066;-76
2023/03/06 04:21:33;;;;;;;12.88;5.35;;;0.70;99.90;;;;;;4979861;28;20084;-76
2023/03/06 04:23:59;;;;;;;11.90;5.88;;;0.60;99.90;;;;;;4964471;28;20054;-78
2023/03/06 04:26:25;;;;;;;10.77;5.70;;;0.60;99.90;;;;;;4951394;28;20032;-79
2023/03/06 04:28:51;;;;;;;17.55;5.95;;;0.60;99.90;;;;;;4952751;28;20030;-79
2023/03/06 04:31:18;;;;;;;15.48;6.57;;;0.70;99.90;;;;;;4951600;28;20031;-79
2023/03/06 04:33:44;;;;;;;13.02;6.03;;;0.60;99.90;;;;;;4952729;28;20037;-78
2023/03/06 04:36:25;;;;;;;15.95;6.47;;;0.60;99.90;;;;;;4957290;28;20037;-77
2023/03/06 04:38:53;;;;;;;14.57;6.75;;;0.70;99.90;;;;;;4952204;29;20027;-78
2023/03/06 04:41:19;;;;;;;13.82;6.63;;;0.70;99.90;;;;;;4956935;28;20031;-78
2023/03/06 04:43:45;;;;;;;14.63;6.07;;;0.60;99.90;;;;;;4964385;28;20483;-79
2023/03/06 04:46:11;;;;;;;16.65;6.68;;;0.60;99.90;;;;;;4974639;28;20042;-77
2023/03/06 04:48:37;;;;;;;17.58;6.95;;;0.70;99.90;;;;;;4971060;28;20035;-78
2023/03/06 04:51:03;;;;;;;16.05;7.55;;;0.70;99.90;;;;;;4967929;28;20085;-78
2023/03/06 04:53:28;;;;;;;15.57;7.80;;;0.70;99.90;;;;;;4982535;28;20057;-78
2023/03/06 04:55:54;;;;;;;16.58;6.65;;;0.70;99.90;;;;;;4989162;28;20026;-79
2023/03/06 04:58:20;;;;;;;16.00;7.22;;;0.60;99.90;;;;;;4972189;28;20034;-78
2023/03/06 05:00:46;;;;;;;13.52;7.07;;;0.60;99.90;;;;;;4969638;28;20038;-78
2023/03/06 05:03:13;;;;;;;17.95;7.63;;;0.50;99.90;;;;;;4973842;28;20031;-78
2023/03/06 05:05:39;;;;;;;16.98;7.30;;;0.50;99.90;;;;;;4985534;28;20030;-79
2023/03/06 05:08:05;;;;;;;17.45;7.93;;;0.50;99.90;;;;;;4985651;28;20061;-78
2023/03/06 05:10:31;;;;;;;17.52;7.03;;;0.50;99.90;;;;;;4986827;28;20034;-77
2023/03/06 05:12:57;;;;;;;15.65;6.95;;;0.60;99.90;;;;;;4986592;28;20122;-77
2023/03/06 05:15:23;;;;;;;16.70;7.57;;;0.60;99.90;;;;;;4954123;28;20045;-77
2023/03/06 05:17:49;;;;;;;14.30;6.60;;;0.60;99.90;;;;;;4965659;28;20049;-79
2023/03/06 05:20:16;;;;;;;18.13;7.50;;;0.60;99.90;;;;;;4978025;28;20038;-77
2023/03/06 05:22:42;;;;;;;15.38;6.68;;;0.60;99.90;;;;;;4964931;28;20104;-77
2023/03/06 05:25:09;;;;;;;14.13;6.88;;;0.60;99.90;;;;;;4956909;28;20523;-77
2023/03/06 05:27:36;;;;;;;17.02;7.38;;;0.50;99.90;;;;;;4985208;28;20368;-78
2023/03/06 05:30:02;;;;;;;15.90;7.97;;;0.50;99.90;;;;;;4988951;28;20493;-78
2023/03/06 05:32:28;;;;;;;16.50;8.38;;;0.50;99.90;;;;;;4964797;28;20118;-79
2023/03/06 05:34:54;;;;;;;18.77;8.80;;;0.50;99.90;;;;;;4964585;28;20058;-79
2023/03/06 05:37:21;;;;;;;18.25;8.55;;;0.50;99.90;;;;;;4985803;28;20470;-79
2023/03/06 05:39:48;;;;;;;18.15;8.60;;;0.50;99.90;;;;;;4963820;28;20065;-78
2023/03/06 05:42:14;;;;;;;16.90;8.60;;;0.40;99.90;;;;;;4961692;28;20133;-79
2023/03/06 05:44:40;;;;;;;17.67;8.50;;;0.40;99.90;;;;;;4960738;28;20114;-79
2023/03/06 05:47:07;;;;;;;18.40;9.13;;;0.40;99.90;;;;;;4973303;28;20040;-79
2023/03/06 05:49:34;;;;;;;17.83;8.52;;;0.40;99.90;;;;;;4940900;28;20098;-79
2023/03/06 05:52:02;;;;;;;20.35;9.70;;;0.50;99.90;;;;;;4955642;28;20033;-78
2023/03/06 05:54:29;;;;;;;21.00;8.80;;;0.50;99.90;;;;;;4958832;28;20411;-79
2023/03/06 05:56:56;;;;;;;17.15;8.45;;;0.60;99.90;;;;;;4974038;28;20039;-79
2023/03/06 05:59:26;;;;;;;22.50;9.95;;;0.60;99.90;;;;;;4973207;28;20034;-78
2023/03/06 06:01:54;;;;;;;22.05;9.27;;;0.50;99.90;;;;;;4966047;28;20031;-78
2023/03/06 06:04:21;;;;;;;21.70;9.25;;;0.50;99.90;;;;;;4975654;28;20069;-78
2023/03/06 06:06:50;;;;;;;21.08;8.73;;;0.50;99.90;;;;;;4960206;28;20442;-79
2023/03/06 06:09:16;;;;;;;20.88;9.32;;;0.50;99.90;;;;;;4981319;28;20125;-78
2023/03/06 06:11:42;;;;;;;19.38;9.18;;;0.50;99.90;;;;;;4960605;28;20054;-79
2023/03/06 06:14:08;;;;;;;20.15;10.63;;;0.50;99.90;;;;;;4983296;28;20110;-79
2023/03/06 06:16:33;;;;;;;20.63;8.93;;;0.50;99.90;;;;;;4978182;28;20094;-79
2023/03/06 06:18:59;;;;;;;25.77;9.95;;;0.50;99.90;;;;;;4984609;28;20066;-79
2023/03/06 06:21:25;;;;;;;22.38;9.98;;;0.50;99.90;;;;;;4962865;28;20034;-78
2023/03/06 06:23:51;;;;;;;22.10;10.63;;;0.50;99.90;;;;;;4968280;28;20557;-78
2023/03/06 06:26:16;;;;;;;25.15;11.02;;;0.50;99.90;;;;;;4970708;28;20031;-78
2023/03/06 06:28:42;;;;;;;25.55;11.55;;;0.50;99.90;;;;;;4950521;28;20502;-78
2023/03/06 06:31:11;;;;;;;21.58;10.13;;;0.50;99.90;;;;;;4944459;28;20041;-78
2023/03/06 06:33:37;;;;;;;20.85;9.98;;;0.60;99.90;;;;;;4961984;28;20034;-78
2023/03/06 06:36:03;;;;;;;24.02;10.05;;;0.60;99.90;;;;;;4947912;28;20391;-77
2023/03/06 06:38:29;;;;;;;19.92;8.88;;;0.60;99.90;;;;;;4946925;28;20537;-79
2023/03/06 06:40:55;;;;;;;19.20;9.80;;;0.70;99.90;;;;;;4974748;28;20118;-78
2023/03/06 06:43:21;;;;;;;22.75;10.25;;;0.70;99.90;;;;;;4965236;28;20039;-78
2023/03/06 06:45:47;;;;;;;21.27;10.32;;;0.80;99.90;;;;;;4957962;28;20669;-77
2023/03/06 06:48:12;;;;;;;27.80;11.43;;;0.80;99.90;;;;;;4959932;28;20085;-78
2023/03/06 06:50:38;;;;;;;23.67;11.63;;;0.90;99.90;;;;;;4954857;28;20435;-79
2023/03/06 06:53:04;;;;;;;23.40;11.23;;;1.00;99.90;;;;;;4958148;28;20049;-78
2023/03/06 06:55:30;;;;;;;26.02;12.75;;;1.00;99.90;;;;;;4961070;28;20042;-78
2023/03/06 06:57:56;;;;;;;27.80;12.13;;;1.10;99.90;;;;;;4987502;28;20034;-78
2023/03/06 07:00:22;;;;;;;25.08;11.65;;;1.10;99.90;;;;;;4980340;28;20062;-78
2023/03/06 07:02:49;;;;;;;24.05;11.40;;;1.10;99.90;;;;;;4965801;28;20071;-78
2023/03/06 07:05:15;;;;;;;23.33;10.80;;;1.20;99.90;;;;;;4970965;28;20058;-79
2023/03/06 07:07:43;;;;;;;26.35;12.02;;;1.20;99.90;;;;;;4964834;28;20031;-78
2023/03/06 07:10:14;;;;;;;27.25;11.98;;;1.20;99.90;;;;;;4992207;28;20058;-78
2023/03/06 07:12:40;;;;;;;27.17;13.02;;;1.20;99.90;;;;;;4984895;28;20438;-78
2023/03/06 07:15:07;;;;;;;26.83;12.90;;;1.30;99.90;;;;;;4967356;28;20102;-79
2023/03/06 07:17:33;;;;;;;26.38;12.70;;;1.30;99.90;;;;;;4955173;28;20039;-78
2023/03/06 07:19:59;;;;;;;23.73;11.65;;;1.40;99.90;;;;;;4964312;28;20045;-78
2023/03/06 07:22:25;;;;;;;29.73;12.02;;;1.40;99.90;;;;;;4983564;28;20114;-78
2023/03/06 07:24:50;;;;;;;22.60;11.88;;;1.40;99.90;;;;;;4965233;28;20117;-77
2023/03/06 07:27:16;;;;;;;30.90;13.45;;;1.50;99.90;;;;;;4986179;28;20410;-79
2023/03/06 07:29:42;;;;;;;27.45;13.07;;;1.60;99.90;;;;;;4982432;28;20027;-78
2023/03/06 07:32:09;;;;;;;27.00;12.13;;;1.60;99.90;;;;;;4962395;28;20030;-79
2023/03/06 07:34:36;;;;;;;29.75;13.45;;;1.70;99.90;;;;;;4948635;28;20567;-78
2023/03/06 07:37:02;;;;;;;28.00;11.52;;;1.70;99.90;;;;;;4963582;28;20410;-78
2023/03/06 07:39:29;;;;;;;31.05;13.52;;;1.70;99.90;;;;;;4967260;28;20061;-78
2023/03/06 07:41:55;;;;;;;27.98;12.40;;;1.80;99.90;;;;;;4971877;28;20031;-80
2023/03/06 07:44:21;;;;;;;27.20;11.98;;;1.80;99.90;;;;;;4960775;28;20082;-78
2023/03/06 07:46:46;;;;;;;29.92;12.82;;;1.90;99.90;;;;;;4972866;28;20034;-80
2023/03/06 07:49:12;;;;;;;26.35;12.52;;;1.90;99.90;;;;;;4988214;28;20030;-80
2023/03/06 07:51:39;;;;;;;26.38;13.75;;;2.00;99.90;;;;;;4972130;28;20030;-79
2023/03/06 07:54:04;;;;;;;26.75;12.18;;;2.00;99.90;;;;;;4970674;28;20034;-79
2023/03/06 07:56:30;;;;;;;27.27;13.05;;;2.00;99.90;;;;;;4952381;28;20081;-78
2023/03/06 07:58:56;;;;;;;29.45;12.52;;;2.00;99.90;;;;;;4961566;28;20030;-79
2023/03/06 08:01:23;;;;;;;27.65;13.75;;;2.10;99.90;;;;;;4933837;28;20125;-79
2023/03/06 08:03:49;;;;;;;26.98;12.68;;;2.10;99.90;;;;;;4967246;28;20469;-79
2023/03/06 08:06:20;;;;;;;28.60;12.85;;;2.10;99.90;;;;;;4985359;28;20058;-79
2023/03/06 08:08:47;;;;;;;28.95;12.90;;;2.10;99.90;;;;;;4980586;28;20030;-79
2023/03/06 08:11:15;;;;;;;33.50;14.13;;;2.20;99.90;;;;;;4981101;28;20034;-79
2023/03/06 08:13:41;;;;;;;31.58;13.80;;;2.30;99.90;;;;;;4990568;28;20038;-79
2023/03/06 08:16:07;;;;;;;34.33;14.32;;;2.30;99.90;;;;;;4979640;28;20045;-79
2023/03/06 08:18:33;;;;;;;29.30;13.50;;;2.40;99.90;;;;;;4974504;28;20553;-79
2023/03/06 08:21:12;;;;;;;29.20;13.93;;;2.50;99.90;;;;;;4981472;28;20030;-79
2023/03/06 08:23:39;;;;;;;26.00;13.35;;;2.60;99.90;;;;;;4980905;28;20030;-80
2023/03/06 08:26:11;;;;;;;25.52;13.25;;;2.70;99.90;;;;;;4963783;28;20026;-81
2023/03/06 08:28:37;;;;;;;25.60;13.07;;;2.80;99.90;;;;;;4962718;28;20034;-77
2023/03/06 08:31:10;;;;;;;28.27;12.82;;;2.80;99.90;;;;;;4975295;28;20046;-79
2023/03/06 08:33:37;;;;;;;23.50;12.38;;;2.90;99.90;;;;;;4960795;28;20057;-79
2023/03/06 08:36:03;;;;;;;25.80;13.35;;;2.90;99.90;;;;;;4968941;28;20030;-78
2023/03/06 08:38:29;;;;;;;28.48;13.60;;;2.90;99.90;;;;;;4979230;28;20135;-79
2023/03/06 08:40:55;;;;;;;29.08;13.60;;;2.80;99.90;;;;;;4964192;28;20379;-78
2023/03/06 08:43:21;;;;;;;29.27;13.48;;;2.80;99.90;;;;;;4940146;28;20035;-77
2023/03/06 08:45:54;;;;;;;27.50;13.10;;;2.70;99.90;;;;;;4969968;28;20098;-78
2023/03/06 08:48:20;;;;;;;30.70;14.07;;;2.80;99.90;;;;;;4954700;28;20053;-77
2023/03/06 08:50:46;;;;;;;28.55;14.07;;;2.80;99.90;;;;;;4965503;28;20050;-77
2023/03/06 08:53:11;;;;;;;26.98;13.82;;;2.90;99.90;;;;;;4949804;28;20065;-78
2023/03/06 08:55:37;;;;;;;23.48;12.60;;;3.00;99.90;;;;;;4957129;28;20074;-77
2023/03/06 08:58:03;;;;;;;28.48;14.05;;;3.00;99.90;;;;;;4951275;28;20041;-77
2023/03/06 09:00:30;;;;;;;31.77;14.10;;;3.00;99.90;;;;;;4951179;28;20043;-77
2023/03/06 09:02:56;;;;;;;26.92;12.90;;;3.00;99.90;;;;;;4951352;28;20035;-77
2023/03/06 09:05:21;;;;;;;27.20;13.57;;;3.10;99.90;;;;;;4968936;28;20089;-77
2023/03/06 09:07:47;;;;;;;30.58;15.10;;;3.00;99.90;;;;;;4935296;28;20117;-78
2023/03/06 09:10:15;;;;;;;29.45;13.82;;;3.10;99.90;;;;;;4950086;28;20122;-77
2023/03/06 09:12:41;;;;;;;26.63;14.52;;;3.10;99.90;;;;;;4952516;28;20038;-78
2023/03/06 09:15:08;;;;;;;27.58;14.43;;;3.10;99.90;;;;;;4951695;28;20563;-78
2023/03/06 09:17:34;;;;;;;26.15;14.30;;;3.20;99.90;;;;;;4961291;28;20031;-77
2023/03/06 09:19:59;;;;;;;29.23;13.55;;;3.20;99.90;;;;;;4956482;28;20077;-78
2023/03/06 09:22:25;;;;;;;26.30;14.20;;;3.20;99.90;;;;;;4963385;28;20027;-77
2023/03/06 09:24:51;;;;;;;28.27;13.27;;;3.30;99.90;;;;;;4947753;28;20043;-78
2023/03/06 09:27:17;;;;;;;27.88;13.52;;;3.30;99.90;;;;;;4946363;28;20094;-78
2023/03/06 09:29:43;;;;;;;23.67;13.15;;;3.30;99.90;;;;;;4971602;28;20121;-77
2023/03/06 09:32:09;;;;;;;27.60;14.15;;;3.40;99.90;;;;;;4953057;28;20034;-78
2023/03/06 09:34:35;;;;;;;25.20;13.05;;;3.40;99.90;;;;;;4959428;28;21047;-78
2023/03/06 09:37:01;;;;;;;24.48;13.77;;;3.40;99.90;;;;;;4968385;28;20027;-78
2023/03/06 09:39:27;;;;;;;22.52;12.15;;;3.40;99.90;;;;;;4982738;28;20066;-79
2023/03/06 09:41:58;;;;;;;26.27;13.55;;;3.40;99.90;;;;;;4986427;28;20063;-76
2023/03/06 09:44:30;;;;;;;26.98;12.55;;;3.40;99.90;;;;;;4977293;28;20031;-77
2023/03/06 09:46:58;;;;;;;24.98;13.27;;;3.50;99.90;;;;;;4976025;28;20027;-77
2023/03/06 09:49:39;;;;;;;22.65;12.25;;;3.40;99.90;;;;;;4982668;28;20027;-77
2023/03/06 09:52:22;;;;;;;24.90;12.65;;;3.50;99.90;;;;;;4945394;28;20034;-79
2023/03/06 09:55:08;;;;;;;27.48;13.60;;;3.50;99.90;;;;;;4980251;28;20045;-78
2023/03/06 09:57:59;;;;;;;23.75;12.77;;;3.50;99.90;;;;;;4986956;28;20098;-79
2023/03/06 10:00:37;;;;;;;23.50;12.85;;;3.50;99.90;;;;;;4969469;28;20049;-80
2023/03/06 10:03:05;;;;;;;29.80;14.02;;;3.50;99.90;;;;;;4978412;28;20044;-76
2023/03/06 10:05:40;;;;;;;25.23;13.63;;;3.60;99.90;;;;;;4981801;28;20034;-80
2023/03/06 10:08:34;;;;;;;26.58;12.82;;;3.60;99.90;;;;;;4973404;28;20061;-76
2023/03/06 10:11:10;;;;;;;26.70;12.50;;;3.60;99.90;;;;;;4940254;28;20494;-78
2023/03/06 10:13:49;;;;;;;21.40;12.40;;;3.60;99.90;;;;;;4941726;28;20031;-78
2023/03/06 10:16:31;;;;;;;28.20;14.48;;;3.60;99.90;;;;;;4975089;28;20034;-79
2023/03/06 10:19:02;;;;;;;25.17;12.73;;;3.50;99.90;;;;;;4979818;28;20034;-78
2023/03/06 10:21:47;;;;;;;22.48;12.80;;;3.40;99.90;;;;;;4957264;28;20660;-78
2023/03/06 10:24:39;;;;;;;26.00;13.20;;;3.40;99.90;;;;;;4950891;28;20035;-79
2023/03/06 10:27:32;;;;;;;26.85;13.50;;;3.30;99.90;;;;;;4978006;28;20193;-78
2023/03/06 10:30:17;;;;;;;24.40;12.98;;;3.20;99.90;;;;;;4973087;28;20046;-78
2023/03/06 10:32:57;;;;;;;24.67;12.63;;;3.10;99.90;;;;;;4970681;28;20033;-77
2023/03/06 10:35:46;;;;;;;21.73;13.45;;;2.90;99.90;;;;;;4966321;28;20034;-77
2023/03/06 10:38:21;;;;;;;24.17;13.98;;;2.80;99.90;;;;;;4973557;28;20644;-78
2023/03/06 10:41:12;;;;;;;22.40;13.45;;;2.70;99.90;;;;;;4955952;28;20030;-78
2023/03/06 10:43:43;;;;;;;23.17;13.45;;;2.60;99.90;;;;;;4995998;28;20038;-78
2023/03/06 10:46:11;;;;;;;23.83;12.88;;;2.60;99.90;;;;;;4978025;28;20507;-78
2023/03/06 10:48:39;;;;;;;25.83;12.75;;;2.50;99.90;;;;;;4958276;28;20042;-78
2023/03/06 10:51:22;;;;;;;25.38;13.30;;;2.50;99.90;;;;;;4961446;28;20038;-79
2023/03/06 10:53:53;;;;;;;23.65;12.85;;;2.50;99.90;;;;;;4957844;28;20045;-80
2023/03/06 10:56:40;;;;;;;25.10;13.00;;;2.40;99.90;;;;;;4987838;28;20494;-79
2023/03/06 10:59:24;;;;;;;25.75;14.43;;;2.40;99.90;;;;;;4982106;28;20030;-79
2023/03/06 11:02:27;;;;;;;26.60;13.80;;;2.40;99.90;;;;;;4984213;28;20038;-80
2023/03/06 11:04:54;;;;;;;27.13;14.27;;;2.30;99.90;;;;;;4914777;29;20040;-81
2023/03/06 11:07:29;;;;;;;24.30;13.77;;;2.30;99.90;;;;;;4969580;28;20202;-81
2023/03/06 11:10:00;;;;;;;29.10;14.20;;;2.40;99.90;;;;;;4987108;28;20030;-81
2023/03/06 11:12:38;;;;;;;26.58;14.00;;;2.50;99.90;;;;;;4985117;28;20154;-82
2023/03/06 11:15:13;;;;;;;26.17;13.27;;;2.60;99.90;;;;;;4940540;28;20383;-81
2023/03/06 11:17:53;;;;;;;26.23;14.20;;;2.70;99.90;;;;;;4961815;28;20645;-81
2023/03/06 11:20:24;;;;;;;26.17;13.60;;;2.80;99.90;;;;;;4986575;28;20026;-80
2023/03/06 11:22:55;;;;;;;25.13;13.43;;;2.80;99.90;;;;;;4974707;28;20027;-81
2023/03/06 11:25:26;;;;;;;23.63;12.90;;;2.90;99.90;;;;;;4974412;28;20041;-81
2023/03/06 11:28:03;;;;;;;23.45;13.77;;;2.80;99.90;;;;;;4943409;28;20038;-80
2023/03/06 11:30:41;;;;;;;23.65;13.80;;;2.80;99.90;;;;;;4976864;28;20023;-81
2023/03/06 11:33:22;;;;;;;24.33;13.20;;;2.90;99.90;;;;;;4978574;28;20074;-79
2023/03/06 11:36:03;;;;;;;24.95;14.40;;;3.00;99.90;;;;;;4976753;28;20065;-80
2023/03/06 11:38:43;;;;;;;22.17;12.73;;;3.20;99.90;;;;;;4984631;28;20034;-79
2023/03/06 11:41:41;;;;;;;22.02;11.82;;;3.30;99.90;;;;;;4965190;28;20573;-80
2023/03/06 11:44:24;;;;;;;19.55;11.00;;;3.30;99.90;;;;;;4980684;28;20030;-79
2023/03/06 11:47:18;;;;;;;21.30;11.57;;;3.30;99.90;;;;;;4961328;28;20027;-79
2023/03/06 11:50:13;;;;;;;18.25;11.07;;;3.30;99.90;;;;;;4984873;28;20050;-78
2023/03/06 11:53:01;;;;;;;19.85;10.82;;;3.20;99.90;;;;;;4964342;28;20034;-80
2023/03/06 11:56:04;;;;;;;18.63;11.25;;;3.20;99.90;;;;;;4956384;28;20097;-78
2023/03/06 11:58:52;;;;;;;19.60;10.85;;;3.10;99.90;;;;;;4969789;28;20081;-78
2023/03/06 12:01:35;;;;;;;19.13;11.10;;;3.00;99.90;;;;;;4981049;28;20093;-78
2023/03/06 12:04:06;;;;;;;21.17;12.32;;;3.10;99.90;;;;;;4976301;28;20037;-78
2023/03/06 12:07:03;;;;;;;19.45;11.38;;;3.20;99.90;;;;;;4986086;28;20050;-79
2023/03/06 12:09:45;;;;;;;21.75;12.43;;;3.30;99.90;;;;;;4992670;28;20516;-80
2023/03/06 12:12:42;;;;;;;22.17;11.70;;;3.50;99.90;;;;;;4978974;28;20023;-79
2023/03/06 12:15:39;;;;;;;20.17;11.73;;;3.60;99.90;;;;;;4978092;28;20084;-78
2023/03/06 12:18:37;;;;;;;20.63;12.48;;;3.70;99.90;;;;;;4982388;28;20022;-79
2023/03/06 12:21:27;;;;;;;22.98;12.68;;;3.90;99.90;;;;;;4977273;28;20087;-79
2023/03/06 12:24:22;;;;;;;23.63;12.40;;;4.00;99.90;;;;;;4975759;28;20114;-78
2023/03/06 12:26:57;;;;;;;21.90;12.00;;;4.00;99.90;;;;;;4981256;28;20027;-78
2023/03/06 12:29:48;;;;;;;18.80;11.65;;;4.00;99.90;;;;;;4965802;28;20041;-78
2023/03/06 12:32:35;;;;;;;17.98;10.90;;;4.00;99.90;;;;;;4961257;28;20030;-79
2023/03/06 12:35:16;;;;;;;20.10;11.10;;;4.00;99.90;;;;;;4960393;28;20034;-78
2023/03/06 12:37:58;;;;;;;20.85;11.18;;;3.90;99.90;;;;;;4978925;28;20062;-77
2023/03/06 12:40:42;;;;;;;20.50;11.07;;;3.90;99.90;;;;;;4971162;28;20022;-79
2023/03/06 12:43:32;;;;;;;20.00;10.80;;;3.90;99.90;;;;;;4943805;28;20118;-79
2023/03/06 12:46:08;;;;;;;18.23;10.07;;;3.90;99.90;;;;;;4981374;28;20387;-79
2023/03/06 12:48:36;;;;;;;17.00;10.23;;;3.90;99.90;;;;;;4960744;28;20053;-77
2023/03/06 12:51:05;;;;;;;17.08;10.00;;;3.90;99.90;;;;;;4989405;28;20388;-78
2023/03/06 12:53:33;;;;;;;16.88;9.75;;;3.90;99.90;;;;;;4990371;28;20034;-79
2023/03/06 12:56:01;;;;;;;16.27;9.50;;;3.90;99.90;;;;;;4982473;28;20041;-79
2023/03/06 12:58:27;;;;;;;16.23;9.63;;;3.90;99.90;;;;;;4988541;28;20077;-80